sensor_id;sensor_type;location;lat;lon;timestamp;temperature;humidity
14739;DHT22;7461;52.440;13.540;2023-03-17T00:00:34;5.50;90.80
14739;DHT22;7461;52.440;13.540;2023-03-17T00:03:04;5.50;91.30
14739;DHT22;7461;52.440;13.540;2023-03-17T00:05:32;5.40;91.50
14739;DHT22;7461;52.440;13.540;2023-03-17T00:08:03;5.40;90.90
14739;DHT22;7461;52.440;13.540;2023-03-17T00:10:30;5.40;90.50
14739;DHT22;7461;52.440;13.540;2023-03-17T00:12:57;5.40;91.10
14739;DHT22;7461;52.440;13.540;2023-03-17T00:15:26;5.40;91.00
14739;DHT22;7461;52.440;13.540;2023-03-17T00:17:53;5.40;91.20
14739;DHT22;7461;52.440;13.540;2023-03-17T00:20:27;5.40;91.50
14739;DHT22;7461;52.440;13.540;2023-03-17T00:22:54;5.30;92.00
14739;DHT22;7461;52.440;13.540;2023-03-17T00:25:24;5.30;92.50
14739;DHT22;7461;52.440;13.540;2023-03-17T00:27:52;5.30;92.40
14739;DHT22;7461;52.440;13.540;2023-03-17T00:30:20;5.30;91.80
14739;DHT22;7461;52.440;13.540;2023-03-17T00:32:50;5.30;92.50
14739;DHT22;7461;52.440;13.540;2023-03-17T00:35:20;5.20;91.20
14739;DHT22;7461;52.440;13.540;2023-03-17T00:37:50;5.20;91.80
14739;DHT22;7461;52.440;13.540;2023-03-17T00:40:20;5.20;92.60
14739;DHT22;7461;52.440;13.540;2023-03-17T00:42:48;5.20;93.40
14739;DHT22;7461;52.440;13.540;2023-03-17T00:45:16;5.10;93.30
14739;DHT22;7461;52.440;13.540;2023-03-17T00:47:43;5.10;93.30
14739;DHT22;7461;52.440;13.540;2023-03-17T00:50:16;5.10;93.70
14739;DHT22;7461;52.440;13.540;2023-03-17T00:52:44;5.10;93.50
14739;DHT22;7461;52.440;13.540;2023-03-17T00:55:12;5.10;93.80
14739;DHT22;7461;52.440;13.540;2023-03-17T00:57:40;5.00;92.90
14739;DHT22;7461;52.440;13.540;2023-03-17T01:00:18;5.00;94.20
14739;DHT22;7461;52.440;13.540;2023-03-17T01:02:46;5.00;94.20
14739;DHT22;7461;52.440;13.540;2023-03-17T01:05:14;5.00;94.70
14739;DHT22;7461;52.440;13.540;2023-03-17T01:07:42;5.00;94.90
14739;DHT22;7461;52.440;13.540;2023-03-17T01:10:16;4.90;95.50
14739;DHT22;7461;52.440;13.540;2023-03-17T01:12:44;4.90;95.40
14739;DHT22;7461;52.440;13.540;2023-03-17T01:15:12;4.80;95.50
14739;DHT22;7461;52.440;13.540;2023-03-17T01:17:39;4.90;95.80
14739;DHT22;7461;52.440;13.540;2023-03-17T01:20:10;4.80;96.40
14739;DHT22;7461;52.440;13.540;2023-03-17T01:22:41;4.80;95.40
14739;DHT22;7461;52.440;13.540;2023-03-17T01:25:08;4.80;96.40
14739;DHT22;7461;52.440;13.540;2023-03-17T01:27:37;4.80;97.10
14739;DHT22;7461;52.440;13.540;2023-03-17T01:30:07;4.80;97.20
14739;DHT22;7461;52.440;13.540;2023-03-17T01:32:34;4.70;96.60
14739;DHT22;7461;52.440;13.540;2023-03-17T01:35:01;4.80;97.60
14739;DHT22;7461;52.440;13.540;2023-03-17T01:37:29;4.70;97.70
14739;DHT22;7461;52.440;13.540;2023-03-17T01:39:56;4.70;96.40
14739;DHT22;7461;52.440;13.540;2023-03-17T01:42:24;4.70;97.30
14739;DHT22;7461;52.440;13.540;2023-03-17T01:45:01;4.70;97.70
14739;DHT22;7461;52.440;13.540;2023-03-17T01:47:29;4.70;97.90
14739;DHT22;7461;52.440;13.540;2023-03-17T01:49:57;4.70;99.10
14739;DHT22;7461;52.440;13.540;2023-03-17T01:52:26;4.70;98.10
14739;DHT22;7461;52.440;13.540;2023-03-17T01:54:57;4.70;97.90
14739;DHT22;7461;52.440;13.540;2023-03-17T01:57:28;4.70;98.40
14739;DHT22;7461;52.440;13.540;2023-03-17T02:00:01;4.60;98.80
14739;DHT22;7461;52.440;13.540;2023-03-17T02:02:33;4.60;98.70
14739;DHT22;7461;52.440;13.540;2023-03-17T02:05:03;4.60;99.00
14739;DHT22;7461;52.440;13.540;2023-03-17T02:07:30;4.60;99.40
14739;DHT22;7461;52.440;13.540;2023-03-17T02:09:58;4.60;99.20
14739;DHT22;7461;52.440;13.540;2023-03-17T02:12:26;4.60;99.60
14739;DHT22;7461;52.440;13.540;2023-03-17T02:14:55;4.60;99.40
14739;DHT22;7461;52.440;13.540;2023-03-17T02:17:25;4.60;99.50
14739;DHT22;7461;52.440;13.540;2023-03-17T02:19:53;4.60;99.50
14739;DHT22;7461;52.440;13.540;2023-03-17T02:22:22;4.60;99.30
14739;DHT22;7461;52.440;13.540;2023-03-17T02:24:52;4.50;99.20
14739;DHT22;7461;52.440;13.540;2023-03-17T02:27:25;4.50;99.60
14739;DHT22;7461;52.440;13.540;2023-03-17T02:29:54;4.50;99.90
14739;DHT22;7461;52.440;13.540;2023-03-17T02:32:21;4.50;99.30
14739;DHT22;7461;52.440;13.540;2023-03-17T02:34:48;4.50;99.90
14739;DHT22;7461;52.440;13.540;2023-03-17T02:37:16;4.50;99.90
14739;DHT22;7461;52.440;13.540;2023-03-17T02:39:45;4.50;99.70
14739;DHT22;7461;52.440;13.540;2023-03-17T02:42:12;4.50;99.90
14739;DHT22;7461;52.440;13.540;2023-03-17T02:44:39;4.40;99.90
14739;DHT22;7461;52.440;13.540;2023-03-17T02:47:07;4.40;99.90
14739;DHT22;7461;52.440;13.540;2023-03-17T02:49:34;4.40;99.90
14739;DHT22;7461;52.440;13.540;2023-03-17T02:52:02;4.40;99.90
14739;DHT22;7461;52.440;13.540;2023-03-17T02:54:29;4.40;99.90
14739;DHT22;7461;52.440;13.540;2023-03-17T02:56:57;4.40;99.80
14739;DHT22;7461;52.440;13.540;2023-03-17T02:59:25;4.50;99.90
14739;DHT22;7461;52.440;13.540;2023-03-17T03:01:52;4.50;99.90
14739;DHT22;7461;52.440;13.540;2023-03-17T03:04:21;4.50;99.90
14739;DHT22;7461;52.440;13.540;2023-03-17T03:06:48;4.40;99.90
14739;DHT22;7461;52.440;13.540;2023-03-17T03:09:16;4.40;99.90
14739;DHT22;7461;52.440;13.540;2023-03-17T03:11:43;4.40;99.90
14739;DHT22;7461;52.440;13.540;2023-03-17T03:14:12;4.40;99.90
14739;DHT22;7461;52.440;13.540;2023-03-17T03:16:39;4.40;99.50
14739;DHT22;7461;52.440;13.540;2023-03-17T03:19:06;4.40;99.40
14739;DHT22;7461;52.440;13.540;2023-03-17T03:21:33;4.40;99.90
14739;DHT22;7461;52.440;13.540;2023-03-17T03:24:01;4.40;99.90
14739;DHT22;7461;52.440;13.540;2023-03-17T03:26:28;4.40;99.40
14739;DHT22;7461;52.440;13.540;2023-03-17T03:28:55;4.40;99.90
14739;DHT22;7461;52.440;13.540;2023-03-17T03:31:26;4.40;99.90
14739;DHT22;7461;52.440;13.540;2023-03-17T03:33:53;4.40;99.90
14739;DHT22;7461;52.440;13.540;2023-03-17T03:36:20;4.40;99.60
14739;DHT22;7461;52.440;13.540;2023-03-17T03:38:48;4.40;99.60
14739;DHT22;7461;52.440;13.540;2023-03-17T03:41:15;4.40;99.80
14739;DHT22;7461;52.440;13.540;2023-03-17T03:43:42;4.40;99.90
14739;DHT22;7461;52.440;13.540;2023-03-17T03:46:09;4.40;99.10
14739;DHT22;7461;52.440;13.540;2023-03-17T03:48:37;4.40;98.70
14739;DHT22;7461;52.440;13.540;2023-03-17T03:51:04;4.40;99.60
14739;DHT22;7461;52.440;13.540;2023-03-17T03:53:31;4.50;99.70
14739;DHT22;7461;52.440;13.540;2023-03-17T03:55:58;4.40;99.10
14739;DHT22;7461;52.440;13.540;2023-03-17T03:58:25;4.40;99.40
14739;DHT22;7461;52.440;13.540;2023-03-17T04:00:52;4.50;99.50
14739;DHT22;7461;52.440;13.540;2023-03-17T04:03:19;4.50;99.20
14739;DHT22;7461;52.440;13.540;2023-03-17T04:05:48;4.50;99.40
14739;DHT22;7461;52.440;13.540;2023-03-17T04:08:15;4.50;98.80
14739;DHT22;7461;52.440;13.540;2023-03-17T04:10:42;4.50;99.30
14739;DHT22;7461;52.440;13.540;2023-03-17T04:13:09;4.50;99.10
14739;DHT22;7461;52.440;13.540;2023-03-17T04:15:36;4.50;99.50
14739;DHT22;7461;52.440;13.540;2023-03-17T04:18:03;4.50;98.60
14739;DHT22;7461;52.440;13.540;2023-03-17T04:20:30;4.50;99.50
14739;DHT22;7461;52.440;13.540;2023-03-17T04:22:58;4.40;98.80
14739;DHT22;7461;52.440;13.540;2023-03-17T04:25:25;4.50;98.80
14739;DHT22;7461;52.440;13.540;2023-03-17T04:27:52;4.50;97.80
14739;DHT22;7461;52.440;13.540;2023-03-17T04:30:19;4.50;98.30
14739;DHT22;7461;52.440;13.540;2023-03-17T04:32:46;4.50;98.90
14739;DHT22;7461;52.440;13.540;2023-03-17T04:35:15;4.50;98.80
14739;DHT22;7461;52.440;13.540;2023-03-17T04:37:42;4.40;98.60
14739;DHT22;7461;52.440;13.540;2023-03-17T04:40:13;4.50;98.40
14739;DHT22;7461;52.440;13.540;2023-03-17T04:42:40;4.40;99.10
14739;DHT22;7461;52.440;13.540;2023-03-17T04:45:10;4.40;98.40
14739;DHT22;7461;52.440;13.540;2023-03-17T04:47:38;4.40;98.80
14739;DHT22;7461;52.440;13.540;2023-03-17T04:50:06;4.40;98.40
14739;DHT22;7461;52.440;13.540;2023-03-17T04:52:34;4.40;98.20
14739;DHT22;7461;52.440;13.540;2023-03-17T04:55:01;4.40;97.90
14739;DHT22;7461;52.440;13.540;2023-03-17T04:57:31;4.30;97.90
14739;DHT22;7461;52.440;13.540;2023-03-17T04:59:58;4.40;98.30
14739;DHT22;7461;52.440;13.540;2023-03-17T05:02:25;4.40;98.30
14739;DHT22;7461;52.440;13.540;2023-03-17T05:04:52;4.40;98.10
14739;DHT22;7461;52.440;13.540;2023-03-17T05:07:19;4.40;98.40
14739;DHT22;7461;52.440;13.540;2023-03-17T05:09:46;4.40;97.50
14739;DHT22;7461;52.440;13.540;2023-03-17T05:12:14;4.30;97.40
14739;DHT22;7461;52.440;13.540;2023-03-17T05:14:42;4.30;97.40
14739;DHT22;7461;52.440;13.540;2023-03-17T05:17:09;4.30;97.50
14739;DHT22;7461;52.440;13.540;2023-03-17T05:19:36;4.30;98.60
14739;DHT22;7461;52.440;13.540;2023-03-17T05:22:03;4.30;98.30
14739;DHT22;7461;52.440;13.540;2023-03-17T05:24:30;4.30;98.40
14739;DHT22;7461;52.440;13.540;2023-03-17T05:26:57;4.30;97.40
14739;DHT22;7461;52.440;13.540;2023-03-17T05:29:24;4.30;97.70
14739;DHT22;7461;52.440;13.540;2023-03-17T05:31:52;4.30;97.70
14739;DHT22;7461;52.440;13.540;2023-03-17T05:34:19;4.30;97.20
14739;DHT22;7461;52.440;13.540;2023-03-17T05:36:46;4.30;97.50
14739;DHT22;7461;52.440;13.540;2023-03-17T05:39:14;4.30;97.70
14739;DHT22;7461;52.440;13.540;2023-03-17T05:41:42;4.30;97.30
14739;DHT22;7461;52.440;13.540;2023-03-17T05:44:08;4.30;98.30
14739;DHT22;7461;52.440;13.540;2023-03-17T05:46:35;4.30;99.10
14739;DHT22;7461;52.440;13.540;2023-03-17T05:49:04;4.30;98.10
14739;DHT22;7461;52.440;13.540;2023-03-17T05:51:32;4.30;98.00
14739;DHT22;7461;52.440;13.540;2023-03-17T05:53:59;4.30;97.70
14739;DHT22;7461;52.440;13.540;2023-03-17T05:56:26;4.20;97.50
14739;DHT22;7461;52.440;13.540;2023-03-17T05:58:58;4.20;98.00
14739;DHT22;7461;52.440;13.540;2023-03-17T06:01:25;4.30;98.10
14739;DHT22;7461;52.440;13.540;2023-03-17T06:03:52;4.30;98.90
14739;DHT22;7461;52.440;13.540;2023-03-17T06:06:21;4.30;98.10
14739;DHT22;7461;52.440;13.540;2023-03-17T06:08:49;4.30;98.00
14739;DHT22;7461;52.440;13.540;2023-03-17T06:11:16;4.30;97.90
14739;DHT22;7461;52.440;13.540;2023-03-17T06:13:44;4.40;97.90
14739;DHT22;7461;52.440;13.540;2023-03-17T06:16:11;4.40;98.40
14739;DHT22;7461;52.440;13.540;2023-03-17T06:18:38;4.40;97.60
14739;DHT22;7461;52.440;13.540;2023-03-17T06:21:05;4.30;96.90
14739;DHT22;7461;52.440;13.540;2023-03-17T06:23:34;4.30;97.90
14739;DHT22;7461;52.440;13.540;2023-03-17T06:26:01;4.40;97.70
14739;DHT22;7461;52.440;13.540;2023-03-17T06:28:28;4.30;96.90
14739;DHT22;7461;52.440;13.540;2023-03-17T06:30:55;4.40;98.10
14739;DHT22;7461;52.440;13.540;2023-03-17T06:33:22;4.40;98.40
14739;DHT22;7461;52.440;13.540;2023-03-17T06:35:49;4.40;97.90
14739;DHT22;7461;52.440;13.540;2023-03-17T06:38:17;4.40;97.60
14739;DHT22;7461;52.440;13.540;2023-03-17T06:40:46;4.50;97.00
14739;DHT22;7461;52.440;13.540;2023-03-17T06:43:13;4.50;97.60
14739;DHT22;7461;52.440;13.540;2023-03-17T06:45:40;4.50;97.70
14739;DHT22;7461;52.440;13.540;2023-03-17T06:48:07;4.60;97.90
14739;DHT22;7461;52.440;13.540;2023-03-17T06:50:34;4.50;97.10
14739;DHT22;7461;52.440;13.540;2023-03-17T06:53:01;4.60;97.60
14739;DHT22;7461;52.440;13.540;2023-03-17T06:55:28;4.60;97.40
14739;DHT22;7461;52.440;13.540;2023-03-17T06:57:57;4.60;97.60
14739;DHT22;7461;52.440;13.540;2023-03-17T07:00:25;4.60;97.30
14739;DHT22;7461;52.440;13.540;2023-03-17T07:02:52;4.70;96.70
14739;DHT22;7461;52.440;13.540;2023-03-17T07:05:19;4.70;96.10
14739;DHT22;7461;52.440;13.540;2023-03-17T07:07:46;4.70;96.80
14739;DHT22;7461;52.440;13.540;2023-03-17T07:10:14;4.70;96.90
14739;DHT22;7461;52.440;13.540;2023-03-17T07:12:41;4.80;97.00
14739;DHT22;7461;52.440;13.540;2023-03-17T07:15:10;4.80;96.40
14739;DHT22;7461;52.440;13.540;2023-03-17T07:17:38;4.90;96.50
14739;DHT22;7461;52.440;13.540;2023-03-17T07:20:05;4.90;96.60
14739;DHT22;7461;52.440;13.540;2023-03-17T07:22:34;5.00;96.70
14739;DHT22;7461;52.440;13.540;2023-03-17T07:25:01;5.00;96.30
14739;DHT22;7461;52.440;13.540;2023-03-17T07:27:28;5.00;94.90
14739;DHT22;7461;52.440;13.540;2023-03-17T07:29:55;5.10;96.40
14739;DHT22;7461;52.440;13.540;2023-03-17T07:32:24;5.10;96.40
14739;DHT22;7461;52.440;13.540;2023-03-17T07:34:50;5.10;95.90
14739;DHT22;7461;52.440;13.540;2023-03-17T07:37:18;5.20;95.30
14739;DHT22;7461;52.440;13.540;2023-03-17T07:39:45;5.30;95.30
14739;DHT22;7461;52.440;13.540;2023-03-17T07:42:14;5.40;94.60
14739;DHT22;7461;52.440;13.540;2023-03-17T07:44:42;5.40;95.00
14739;DHT22;7461;52.440;13.540;2023-03-17T07:47:10;5.60;95.60
14739;DHT22;7461;52.440;13.540;2023-03-17T07:49:39;5.70;94.60
14739;DHT22;7461;52.440;13.540;2023-03-17T07:52:06;5.80;93.50
14739;DHT22;7461;52.440;13.540;2023-03-17T07:54:40;5.90;93.60
14739;DHT22;7461;52.440;13.540;2023-03-17T07:57:07;5.90;93.50
14739;DHT22;7461;52.440;13.540;2023-03-17T07:59:34;6.00;92.40
14739;DHT22;7461;52.440;13.540;2023-03-17T08:02:03;6.10;92.90
14739;DHT22;7461;52.440;13.540;2023-03-17T08:04:30;6.10;92.70
14739;DHT22;7461;52.440;13.540;2023-03-17T08:06:58;6.20;92.90
14739;DHT22;7461;52.440;13.540;2023-03-17T08:09:26;6.20;92.30
14739;DHT22;7461;52.440;13.540;2023-03-17T08:11:52;6.40;91.60
14739;DHT22;7461;52.440;13.540;2023-03-17T08:14:19;6.40;91.30
14739;DHT22;7461;52.440;13.540;2023-03-17T08:16:46;6.60;91.30
14739;DHT22;7461;52.440;13.540;2023-03-17T08:19:13;6.60;91.10
14739;DHT22;7461;52.440;13.540;2023-03-17T08:21:40;6.70;91.20
14739;DHT22;7461;52.440;13.540;2023-03-17T08:24:09;6.90;90.90
14739;DHT22;7461;52.440;13.540;2023-03-17T08:26:36;7.00;90.50
14739;DHT22;7461;52.440;13.540;2023-03-17T08:29:03;7.10;90.00
14739;DHT22;7461;52.440;13.540;2023-03-17T08:31:30;7.30;86.80
14739;DHT22;7461;52.440;13.540;2023-03-17T08:33:58;7.40;86.80
14739;DHT22;7461;52.440;13.540;2023-03-17T08:36:27;7.50;87.20
14739;DHT22;7461;52.440;13.540;2023-03-17T08:38:54;7.60;85.70
14739;DHT22;7461;52.440;13.540;2023-03-17T08:41:24;7.60;83.60
14739;DHT22;7461;52.440;13.540;2023-03-17T08:43:53;7.70;83.70
14739;DHT22;7461;52.440;13.540;2023-03-17T08:46:23;7.80;81.80
14739;DHT22;7461;52.440;13.540;2023-03-17T08:48:52;7.90;82.80
14739;DHT22;7461;52.440;13.540;2023-03-17T08:51:20;8.00;83.10
14739;DHT22;7461;52.440;13.540;2023-03-17T08:53:47;8.10;82.00
14739;DHT22;7461;52.440;13.540;2023-03-17T08:56:14;8.20;82.10
14739;DHT22;7461;52.440;13.540;2023-03-17T08:58:44;8.30;81.90
14739;DHT22;7461;52.440;13.540;2023-03-17T09:01:12;8.30;78.80
14739;DHT22;7461;52.440;13.540;2023-03-17T09:03:40;8.30;80.70
14739;DHT22;7461;52.440;13.540;2023-03-17T09:06:09;8.30;77.90
14739;DHT22;7461;52.440;13.540;2023-03-17T09:08:37;8.30;79.00
14739;DHT22;7461;52.440;13.540;2023-03-17T09:11:05;8.40;78.60
14739;DHT22;7461;52.440;13.540;2023-03-17T09:13:33;8.50;79.60
14739;DHT22;7461;52.440;13.540;2023-03-17T09:16:05;8.50;75.00
14739;DHT22;7461;52.440;13.540;2023-03-17T09:18:33;8.60;77.80
14739;DHT22;7461;52.440;13.540;2023-03-17T09:21:00;8.60;78.60
14739;DHT22;7461;52.440;13.540;2023-03-17T09:23:28;8.70;77.10
14739;DHT22;7461;52.440;13.540;2023-03-17T09:25:55;8.70;75.80
14739;DHT22;7461;52.440;13.540;2023-03-17T09:28:22;8.70;78.40
14739;DHT22;7461;52.440;13.540;2023-03-17T09:30:49;8.80;77.10
14739;DHT22;7461;52.440;13.540;2023-03-17T09:33:18;8.90;76.60
14739;DHT22;7461;52.440;13.540;2023-03-17T09:35:45;8.90;75.50
14739;DHT22;7461;52.440;13.540;2023-03-17T09:38:12;9.00;77.40
14739;DHT22;7461;52.440;13.540;2023-03-17T09:40:45;9.20;76.40
14739;DHT22;7461;52.440;13.540;2023-03-17T09:43:20;9.30;74.40
14739;DHT22;7461;52.440;13.540;2023-03-17T09:45:51;9.40;75.60
14739;DHT22;7461;52.440;13.540;2023-03-17T09:48:41;9.40;75.50
14739;DHT22;7461;52.440;13.540;2023-03-17T09:51:11;9.50;72.80
14739;DHT22;7461;52.440;13.540;2023-03-17T09:53:46;9.60;76.80
14739;DHT22;7461;52.440;13.540;2023-03-17T09:56:16;9.80;76.80
14739;DHT22;7461;52.440;13.540;2023-03-17T09:58:48;10.00;77.40
14739;DHT22;7461;52.440;13.540;2023-03-17T10:01:17;10.10;74.30
14739;DHT22;7461;52.440;13.540;2023-03-17T10:03:45;10.40;75.90
14739;DHT22;7461;52.440;13.540;2023-03-17T10:06:35;10.50;73.00
14739;DHT22;7461;52.440;13.540;2023-03-17T10:09:22;10.70;73.90
14739;DHT22;7461;52.440;13.540;2023-03-17T10:12:01;11.00;73.90
14739;DHT22;7461;52.440;13.540;2023-03-17T10:14:37;11.30;72.30
14739;DHT22;7461;52.440;13.540;2023-03-17T10:17:13;11.40;67.70
14739;DHT22;7461;52.440;13.540;2023-03-17T10:19:45;11.40;69.60
14739;DHT22;7461;52.440;13.540;2023-03-17T10:22:18;11.60;69.50
14739;DHT22;7461;52.440;13.540;2023-03-17T10:24:49;11.70;64.80
14739;DHT22;7461;52.440;13.540;2023-03-17T10:27:17;11.90;67.10
14739;DHT22;7461;52.440;13.540;2023-03-17T10:29:44;12.10;68.50
14739;DHT22;7461;52.440;13.540;2023-03-17T10:32:13;12.30;67.20
14739;DHT22;7461;52.440;13.540;2023-03-17T10:34:40;12.20;66.80
14739;DHT22;7461;52.440;13.540;2023-03-17T10:37:12;12.20;64.70
14739;DHT22;7461;52.440;13.540;2023-03-17T10:39:44;11.90;65.10
14739;DHT22;7461;52.440;13.540;2023-03-17T10:42:19;12.10;67.90
14739;DHT22;7461;52.440;13.540;2023-03-17T10:44:50;12.20;66.30
14739;DHT22;7461;52.440;13.540;2023-03-17T10:47:29;12.20;65.90
14739;DHT22;7461;52.440;13.540;2023-03-17T10:50:00;12.30;66.60
14739;DHT22;7461;52.440;13.540;2023-03-17T10:52:32;12.20;62.30
14739;DHT22;7461;52.440;13.540;2023-03-17T10:55:04;12.20;66.10
14739;DHT22;7461;52.440;13.540;2023-03-17T11:00:54;12.00;64.50
14739;DHT22;7461;52.440;13.540;2023-03-17T11:03:23;12.00;65.50
14739;DHT22;7461;52.440;13.540;2023-03-17T11:05:55;12.20;67.40
14739;DHT22;7461;52.440;13.540;2023-03-17T11:08:24;12.30;64.70
14739;DHT22;7461;52.440;13.540;2023-03-17T11:10:56;12.40;64.40
14739;DHT22;7461;52.440;13.540;2023-03-17T11:13:30;12.40;64.90
14739;DHT22;7461;52.440;13.540;2023-03-17T11:16:06;12.40;62.90
14739;DHT22;7461;52.440;13.540;2023-03-17T11:18:35;12.40;64.30
14739;DHT22;7461;52.440;13.540;2023-03-17T11:21:06;12.40;62.20
14739;DHT22;7461;52.440;13.540;2023-03-17T11:23:46;12.40;63.10
14739;DHT22;7461;52.440;13.540;2023-03-17T11:26:37;12.40;64.70
14739;DHT22;7461;52.440;13.540;2023-03-17T11:29:20;12.40;63.40
14739;DHT22;7461;52.440;13.540;2023-03-17T11:31:55;12.30;61.00
14739;DHT22;7461;52.440;13.540;2023-03-17T11:34:30;12.40;65.60
14739;DHT22;7461;52.440;13.540;2023-03-17T11:37:07;12.50;65.40
14739;DHT22;7461;52.440;13.540;2023-03-17T11:39:43;12.50;64.40
14739;DHT22;7461;52.440;13.540;2023-03-17T11:42:18;12.60;65.50
14739;DHT22;7461;52.440;13.540;2023-03-17T11:44:59;12.60;61.90
14739;DHT22;7461;52.440;13.540;2023-03-17T11:47:37;12.60;63.60
14739;DHT22;7461;52.440;13.540;2023-03-17T11:50:16;12.60;63.60
14739;DHT22;7461;52.440;13.540;2023-03-17T11:52:53;12.50;60.40
14739;DHT22;7461;52.440;13.540;2023-03-17T11:55:31;12.50;63.00
14739;DHT22;7461;52.440;13.540;2023-03-17T11:58:02;12.60;63.40
14739;DHT22;7461;52.440;13.540;2023-03-17T12:00:37;12.60;61.40
14739;DHT22;7461;52.440;13.540;2023-03-17T12:03:11;12.60;63.10
14739;DHT22;7461;52.440;13.540;2023-03-17T12:05:40;12.70;62.40
14739;DHT22;7461;52.440;13.540;2023-03-17T12:08:16;12.70;63.40
14739;DHT22;7461;52.440;13.540;2023-03-17T12:10:53;12.70;60.60
14739;DHT22;7461;52.440;13.540;2023-03-17T12:13:22;12.70;62.60
14739;DHT22;7461;52.440;13.540;2023-03-17T12:15:54;12.80;63.00
14739;DHT22;7461;52.440;13.540;2023-03-17T12:18:26;12.80;60.70
14739;DHT22;7461;52.440;13.540;2023-03-17T12:20:58;12.80;62.10
14739;DHT22;7461;52.440;13.540;2023-03-17T12:23:33;12.80;60.20
14739;DHT22;7461;52.440;13.540;2023-03-17T12:26:06;12.80;59.40
14739;DHT22;7461;52.440;13.540;2023-03-17T12:28:39;12.80;60.70
14739;DHT22;7461;52.440;13.540;2023-03-17T12:31:11;12.90;61.90
14739;DHT22;7461;52.440;13.540;2023-03-17T12:33:43;13.10;60.70
14739;DHT22;7461;52.440;13.540;2023-03-17T12:36:14;13.10;60.50
14739;DHT22;7461;52.440;13.540;2023-03-17T12:38:44;13.10;61.50
14739;DHT22;7461;52.440;13.540;2023-03-17T12:41:38;13.20;62.00
14739;DHT22;7461;52.440;13.540;2023-03-17T12:44:20;13.30;62.60
14739;DHT22;7461;52.440;13.540;2023-03-17T12:47:04;13.30;61.40
14739;DHT22;7461;52.440;13.540;2023-03-17T12:52:55;13.40;60.60
14739;DHT22;7461;52.440;13.540;2023-03-17T12:55:31;13.40;59.70
14739;DHT22;7461;52.440;13.540;2023-03-17T12:58:04;13.40;61.30
14739;DHT22;7461;52.440;13.540;2023-03-17T13:00:36;13.50;60.90
14739;DHT22;7461;52.440;13.540;2023-03-17T13:03:21;13.40;58.10
14739;DHT22;7461;52.440;13.540;2023-03-17T13:05:50;13.40;59.90
14739;DHT22;7461;52.440;13.540;2023-03-17T13:08:23;13.50;61.20
14739;DHT22;7461;52.440;13.540;2023-03-17T13:11:13;13.60;61.10
14739;DHT22;7461;52.440;13.540;2023-03-17T13:13:45;13.60;59.60
14739;DHT22;7461;52.440;13.540;2023-03-17T13:16:30;13.50;58.70
14739;DHT22;7461;52.440;13.540;2023-03-17T13:19:17;13.50;60.00
14739;DHT22;7461;52.440;13.540;2023-03-17T13:21:48;13.50;59.50
14739;DHT22;7461;52.440;13.540;2023-03-17T13:24:35;13.50;59.10
14739;DHT22;7461;52.440;13.540;2023-03-17T13:27:11;13.50;57.00
14739;DHT22;7461;52.440;13.540;2023-03-17T13:29:49;13.50;58.70
14739;DHT22;7461;52.440;13.540;2023-03-17T13:32:33;13.50;60.50
14739;DHT22;7461;52.440;13.540;2023-03-17T13:35:19;13.50;60.50
14739;DHT22;7461;52.440;13.540;2023-03-17T13:41:07;13.60;59.80
14739;DHT22;7461;52.440;13.540;2023-03-17T13:43:56;13.60;58.50
14739;DHT22;7461;52.440;13.540;2023-03-17T13:46:38;13.70;59.80
14739;DHT22;7461;52.440;13.540;2023-03-17T13:49:19;13.70;59.30
14739;DHT22;7461;52.440;13.540;2023-03-17T13:51:50;13.70;58.80
14739;DHT22;7461;52.440;13.540;2023-03-17T13:54:31;13.80;57.90
14739;DHT22;7461;52.440;13.540;2023-03-17T13:56:58;13.80;57.70
14739;DHT22;7461;52.440;13.540;2023-03-17T13:59:55;13.80;59.20
14739;DHT22;7461;52.440;13.540;2023-03-17T14:02:26;13.80;59.20
14739;DHT22;7461;52.440;13.540;2023-03-17T14:04:58;13.80;58.00
14739;DHT22;7461;52.440;13.540;2023-03-17T14:07:28;13.80;59.70
14739;DHT22;7461;52.440;13.540;2023-03-17T14:09:59;13.80;57.90
14739;DHT22;7461;52.440;13.540;2023-03-17T14:12:32;13.90;59.50
14739;DHT22;7461;52.440;13.540;2023-03-17T14:15:04;13.90;59.80
14739;DHT22;7461;52.440;13.540;2023-03-17T14:17:39;13.90;60.20
14739;DHT22;7461;52.440;13.540;2023-03-17T14:20:20;13.90;57.60
14739;DHT22;7461;52.440;13.540;2023-03-17T14:22:53;13.90;57.00
14739;DHT22;7461;52.440;13.540;2023-03-17T14:25:23;13.90;58.80
14739;DHT22;7461;52.440;13.540;2023-03-17T14:27:52;13.90;57.50
14739;DHT22;7461;52.440;13.540;2023-03-17T14:30:22;13.90;58.00
14739;DHT22;7461;52.440;13.540;2023-03-17T14:32:58;13.90;59.20
14739;DHT22;7461;52.440;13.540;2023-03-17T14:35:29;13.90;56.40
14739;DHT22;7461;52.440;13.540;2023-03-17T14:37:56;13.90;58.40
14739;DHT22;7461;52.440;13.540;2023-03-17T14:40:26;13.90;59.10
14739;DHT22;7461;52.440;13.540;2023-03-17T14:42:53;13.90;59.40
14739;DHT22;7461;52.440;13.540;2023-03-17T14:45:27;14.00;59.20
14739;DHT22;7461;52.440;13.540;2023-03-17T14:47:55;14.00;59.60
14739;DHT22;7461;52.440;13.540;2023-03-17T14:50:26;13.90;62.20
14739;DHT22;7461;52.440;13.540;2023-03-17T14:52:54;14.00;59.00
14739;DHT22;7461;52.440;13.540;2023-03-17T14:55:21;14.00;59.40
14739;DHT22;7461;52.440;13.540;2023-03-17T14:57:54;13.90;58.40
14739;DHT22;7461;52.440;13.540;2023-03-17T15:00:32;13.90;57.00
14739;DHT22;7461;52.440;13.540;2023-03-17T15:03:03;13.80;57.60
14739;DHT22;7461;52.440;13.540;2023-03-17T15:05:37;13.80;59.90
14739;DHT22;7461;52.440;13.540;2023-03-17T15:08:28;13.80;59.60
14739;DHT22;7461;52.440;13.540;2023-03-17T15:10:57;13.80;58.40
14739;DHT22;7461;52.440;13.540;2023-03-17T15:13:25;13.80;58.80
14739;DHT22;7461;52.440;13.540;2023-03-17T15:15:52;13.80;58.20
14739;DHT22;7461;52.440;13.540;2023-03-17T15:18:21;13.80;57.90
14739;DHT22;7461;52.440;13.540;2023-03-17T15:20:50;13.70;59.20
14739;DHT22;7461;52.440;13.540;2023-03-17T15:23:18;13.70;58.30
14739;DHT22;7461;52.440;13.540;2023-03-17T15:25:48;13.70;58.50
14739;DHT22;7461;52.440;13.540;2023-03-17T15:28:21;13.70;57.60
14739;DHT22;7461;52.440;13.540;2023-03-17T15:30:50;13.70;58.20
14739;DHT22;7461;52.440;13.540;2023-03-17T15:33:22;13.60;56.50
14739;DHT22;7461;52.440;13.540;2023-03-17T15:35:56;13.60;59.00
14739;DHT22;7461;52.440;13.540;2023-03-17T15:38:24;13.60;58.50
14739;DHT22;7461;52.440;13.540;2023-03-17T15:40:52;13.50;56.80
14739;DHT22;7461;52.440;13.540;2023-03-17T15:43:19;13.50;58.70
14739;DHT22;7461;52.440;13.540;2023-03-17T15:45:48;13.40;58.10
14739;DHT22;7461;52.440;13.540;2023-03-17T15:48:20;13.40;57.60
14739;DHT22;7461;52.440;13.540;2023-03-17T15:50:50;13.40;57.80
14739;DHT22;7461;52.440;13.540;2023-03-17T15:53:18;13.40;57.60
14739;DHT22;7461;52.440;13.540;2023-03-17T15:55:45;13.40;57.90
14739;DHT22;7461;52.440;13.540;2023-03-17T15:58:13;13.40;58.80
14739;DHT22;7461;52.440;13.540;2023-03-17T16:00:40;13.40;58.00
14739;DHT22;7461;52.440;13.540;2023-03-17T16:03:15;13.20;59.60
14739;DHT22;7461;52.440;13.540;2023-03-17T16:05:43;13.30;58.50
14739;DHT22;7461;52.440;13.540;2023-03-17T16:08:13;13.20;59.20